createdAt,value
2018-03-15T00:02:27.368Z,97178.78
2018-03-15T00:04:53.667Z,97176.47
2018-03-15T00:07:19.935Z,97182.34
2018-03-15T00:09:46.302Z,97179.05
2018-03-15T00:12:12.528Z,97175.63
2018-03-15T00:14:38.937Z,97179.88
2018-03-15T00:17:05.185Z,97171.95
2018-03-15T00:19:31.420Z,97165.31
2018-03-15T00:21:58.100Z,97164.41
2018-03-15T00:24:24.452Z,97169.61
2018-03-15T00:26:50.688Z,97160.18
2018-03-15T00:29:17.140Z,97153.09
2018-03-15T00:31:43.364Z,97160.18
2018-03-15T00:34:09.856Z,97149.35
2018-03-15T00:36:36.113Z,97153.78
2018-03-15T00:39:02.641Z,97153.73
2018-03-15T00:41:28.941Z,97151.08
2018-03-15T00:43:55.356Z,97148.72
2018-03-15T00:46:21.769Z,97149.63
2018-03-15T00:48:47.984Z,97148.52
2018-03-15T00:51:14.494Z,97146.33
2018-03-15T00:53:40.723Z,97141.23
2018-03-15T00:56:07.212Z,97139.63
2018-03-15T00:58:33.537Z,97134.63
2018-03-15T01:01:00.060Z,97133.63
2018-03-15T01:03:26.374Z,97127.59
2018-03-15T01:05:52.968Z,97123.33
2018-03-15T01:08:19.193Z,97111.81
2018-03-15T01:10:45.412Z,97110.20
2018-03-15T01:13:11.648Z,97108.38
2018-03-15T01:15:37.869Z,97100.59
2018-03-15T01:18:04.095Z,97094.19
2018-03-15T01:20:30.338Z,97097.30
2018-03-15T01:22:56.567Z,97091.66
2018-03-15T01:25:22.778Z,97092.14
2018-03-15T01:27:49.011Z,97082.77
2018-03-15T01:30:15.228Z,97079.25
2018-03-15T01:32:41.443Z,97080.02
2018-03-15T01:35:07.714Z,97073.38
2018-03-15T01:37:33.936Z,97074.44
2018-03-15T01:40:00.197Z,97075.84
2018-03-15T01:42:26.439Z,97070.91
2018-03-15T01:44:52.668Z,97064.27
2018-03-15T01:47:18.888Z,97058.45
2018-03-15T01:49:45.135Z,97059.83
2018-03-15T01:52:11.358Z,97044.25
2018-03-15T01:54:37.580Z,97046.00
2018-03-15T01:57:03.840Z,97045.72
2018-03-15T01:59:30.061Z,97030.36
2018-03-15T02:01:56.323Z,97029.47
2018-03-15T02:04:22.548Z,97025.48
2018-03-15T02:06:48.755Z,97015.81
2018-03-15T02:09:15.021Z,97014.56
2018-03-15T02:11:41.292Z,97013.94
2018-03-15T02:14:07.525Z,97007.85
2018-03-15T02:16:33.741Z,97005.53
2018-03-15T02:18:59.987Z,96998.99
2018-03-15T02:21:26.224Z,97001.69
2018-03-15T02:23:52.455Z,96992.24
2018-03-15T02:26:18.706Z,96992.61
2018-03-15T02:28:44.942Z,96990.37
2018-03-15T02:31:11.162Z,96989.17
2018-03-15T02:33:37.413Z,96987.45
2018-03-15T02:36:03.652Z,96986.62
2018-03-15T02:38:29.895Z,96994.52
2018-03-15T02:40:56.148Z,96985.89
2018-03-15T02:43:22.372Z,96978.90
2018-03-15T02:45:48.592Z,96979.28
2018-03-15T02:48:14.838Z,96980.97
2018-03-15T02:50:41.050Z,96975.56
2018-03-15T02:53:07.335Z,96974.95
2018-03-15T02:55:33.552Z,96972.75
2018-03-15T02:58:00.925Z,96969.95
2018-03-15T03:00:27.140Z,96965.13
2018-03-15T03:02:53.376Z,96960.75
2018-03-15T03:05:19.602Z,96967.59
2018-03-15T03:07:45.826Z,96955.20
2018-03-15T03:10:12.064Z,96955.39
2018-03-15T03:12:38.276Z,96960.84
2018-03-15T03:15:04.488Z,96957.06
2018-03-15T03:17:30.825Z,96958.06
2018-03-15T03:19:57.032Z,96960.63
2018-03-15T03:22:23.240Z,96959.87
2018-03-15T03:24:49.480Z,96954.33
2018-03-15T03:27:15.708Z,96955.20
2018-03-15T03:29:41.920Z,96957.17
2018-03-15T03:32:08.172Z,96949.92
2018-03-15T03:34:34.411Z,96953.27
2018-03-15T03:37:00.648Z,96951.56
2018-03-15T03:39:26.893Z,96952.39
2018-03-15T03:41:53.140Z,96956.27
2018-03-15T03:44:19.375Z,96952.19
2018-03-15T03:46:45.587Z,96952.25
2018-03-15T03:49:11.824Z,96950.59
2018-03-15T03:51:38.041Z,96950.37
2018-03-15T03:54:04.300Z,96943.92
2018-03-15T03:56:30.516Z,96949.22
2018-03-15T03:58:56.723Z,96949.97
2018-03-15T04:01:22.956Z,96951.69
2018-03-15T04:03:49.167Z,96949.03
2018-03-15T04:06:15.404Z,96951.89
2018-03-15T04:08:41.620Z,96951.45
2018-03-15T04:11:07.859Z,96951.28
2018-03-15T04:13:34.099Z,96962.19
2018-03-15T04:16:00.336Z,96945.08
2018-03-15T04:18:26.549Z,96943.58
2018-03-15T04:20:52.808Z,96946.40
2018-03-15T04:23:19.035Z,96941.31
2018-03-15T04:25:45.258Z,96938.23
2018-03-15T04:28:11.491Z,96951.09
2018-03-15T04:30:37.729Z,96946.66
2018-03-15T04:33:03.960Z,96943.18
2018-03-15T04:35:30.180Z,96941.05
2018-03-15T04:37:56.415Z,96936.55
2018-03-15T04:40:22.669Z,96936.55
2018-03-15T04:42:48.895Z,96935.52
2018-03-15T04:45:15.113Z,96938.06
2018-03-15T04:47:41.413Z,96940.14
2018-03-15T04:50:07.625Z,96939.05
2018-03-15T04:52:33.908Z,96946.71
2018-03-15T04:55:00.149Z,96943.97
2018-03-15T04:57:26.372Z,96937.67
2018-03-15T04:59:52.608Z,96949.36
2018-03-15T05:02:18.835Z,96943.02
2018-03-15T05:04:45.077Z,96947.59
2018-03-15T05:07:11.316Z,96956.28
2018-03-15T05:09:37.571Z,96958.64
2018-03-15T05:12:03.833Z,96951.36
2018-03-15T05:14:30.119Z,96957.12
2018-03-15T05:16:56.328Z,96956.91
2018-03-15T05:19:22.578Z,96950.15
2018-03-15T05:21:48.859Z,96946.65
2018-03-15T05:24:15.065Z,96951.38
2018-03-15T05:26:41.325Z,96947.69
2018-03-15T05:29:07.545Z,96955.48
2018-03-15T05:31:33.816Z,96951.41
2018-03-15T05:34:00.068Z,96942.30
2018-03-15T05:36:26.315Z,96943.04
2018-03-15T05:38:52.553Z,96944.13
2018-03-15T05:41:18.785Z,96942.38
2018-03-15T05:43:45.053Z,96941.23
2018-03-15T05:46:11.321Z,96942.94
2018-03-15T05:48:37.618Z,96942.25
2018-03-15T05:51:03.945Z,96946.84
2018-03-15T05:53:30.222Z,96960.52
2018-03-15T05:55:56.473Z,96962.18
2018-03-15T05:58:22.735Z,96966.05
2018-03-15T06:00:49.025Z,96963.62
2018-03-15T06:03:15.276Z,96966.67
2018-03-15T06:05:41.523Z,96965.82
2018-03-15T06:08:07.740Z,96969.30
2018-03-15T06:10:33.968Z,96969.89
2018-03-15T06:13:00.180Z,96969.23
2018-03-15T06:15:26.414Z,96968.13
2018-03-15T06:17:52.632Z,96966.53
2018-03-15T06:20:18.861Z,96964.55
2018-03-15T06:22:45.077Z,96962.34
2018-03-15T06:25:11.308Z,96965.02
2018-03-15T06:27:37.521Z,96961.02
2018-03-15T06:30:03.793Z,96961.48
2018-03-15T06:32:30.030Z,96965.37
2018-03-15T06:34:56.257Z,96967.79
2018-03-15T06:37:22.493Z,96968.58
2018-03-15T06:39:48.716Z,96962.30
2018-03-15T06:42:14.945Z,96961.92
2018-03-15T06:44:41.165Z,96962.21
2018-03-15T06:47:07.417Z,96956.55
2018-03-15T06:49:33.632Z,96958.44
2018-03-15T06:51:59.872Z,96962.38
2018-03-15T06:54:26.080Z,96969.05
2018-03-15T06:56:52.304Z,96966.83
2018-03-15T06:59:18.541Z,96969.42
2018-03-15T07:01:44.751Z,96969.39
2018-03-15T07:04:11.029Z,96966.89
2018-03-15T07:06:37.244Z,96965.54
2018-03-15T07:09:03.532Z,96966.90
2018-03-15T07:11:29.738Z,96963.32
2018-03-15T07:13:55.968Z,96964.27
2018-03-15T07:16:22.192Z,96957.44
2018-03-15T07:18:48.481Z,96960.20
2018-03-15T07:21:14.701Z,96955.84
2018-03-15T07:23:40.928Z,96953.86
2018-03-15T07:26:07.167Z,96953.07
2018-03-15T07:28:33.404Z,96954.56
2018-03-15T07:30:59.636Z,96956.71
2018-03-15T07:33:25.856Z,96947.66
2018-03-15T07:35:52.096Z,96951.52
2018-03-15T07:38:18.313Z,96957.16
2018-03-15T07:40:44.548Z,96947.59
2018-03-15T07:43:10.783Z,96944.51
2018-03-15T07:45:37.031Z,96941.92
2018-03-15T07:48:03.428Z,96941.81
2018-03-15T07:50:29.696Z,96938.73
2018-03-15T07:52:55.961Z,96936.41
2018-03-15T07:55:22.229Z,96939.66
2018-03-15T07:57:48.481Z,96934.14
2018-03-15T08:00:14.715Z,96932.71
2018-03-15T08:02:40.952Z,96924.72
2018-03-15T08:05:07.176Z,96929.36
2018-03-15T08:07:33.407Z,96915.69
2018-03-15T08:09:59.607Z,96909.84
2018-03-15T08:12:25.836Z,96908.23
2018-03-15T08:14:52.043Z,96913.95
2018-03-15T08:17:18.273Z,96902.64
2018-03-15T08:19:44.484Z,96904.69
2018-03-15T08:22:10.739Z,96899.87
2018-03-15T08:24:37.380Z,96899.58
2018-03-15T08:27:03.812Z,96890.97
2018-03-15T08:29:30.115Z,96882.31
2018-03-15T08:31:56.456Z,96889.84
2018-03-15T08:34:22.907Z,96880.12
2018-03-15T08:36:49.133Z,96887.72
2018-03-15T08:39:15.563Z,96882.55
2018-03-15T08:41:41.776Z,96879.53
2018-03-15T08:44:08.326Z,96874.58
2018-03-15T08:46:34.611Z,96876.81
2018-03-15T08:49:01.092Z,96865.38
2018-03-15T08:51:27.435Z,96859.03
2018-03-15T08:53:53.718Z,96861.66
2018-03-15T08:56:20.069Z,96858.70
2018-03-15T08:58:46.432Z,96862.46
2018-03-15T09:01:12.904Z,96855.87
2018-03-15T09:03:39.168Z,96852.48
2018-03-15T09:06:05.451Z,96849.61
2018-03-15T09:08:31.689Z,96854.21
2018-03-15T09:10:58.311Z,96847.35
2018-03-15T09:13:24.843Z,96841.21
2018-03-15T09:15:51.136Z,96843.61
2018-03-15T09:18:17.671Z,96836.45
2018-03-15T09:20:43.896Z,96830.16
2018-03-15T09:23:10.272Z,96829.05
2018-03-15T09:25:36.535Z,96825.12
2018-03-15T09:28:03.101Z,96819.08
2018-03-15T09:30:29.500Z,96814.13
2018-03-15T09:32:55.777Z,96814.74
2018-03-15T09:35:22.328Z,96816.34
2018-03-15T09:37:48.609Z,96812.73
2018-03-15T09:40:15.059Z,96813.22
2018-03-15T09:42:41.432Z,96798.84
2018-03-15T09:45:07.796Z,96803.94
2018-03-15T09:47:34.131Z,96806.94
2018-03-15T09:50:00.429Z,96798.09
2018-03-15T09:52:26.801Z,96804.53
2018-03-15T09:54:53.130Z,96801.11
2018-03-15T09:57:19.754Z,96798.75
2018-03-15T09:59:46.049Z,96793.95
2018-03-15T10:02:12.311Z,96795.72
2018-03-15T10:04:38.596Z,96794.66
2018-03-15T10:07:04.897Z,96791.08
2018-03-15T10:09:31.131Z,96788.02
2018-03-15T10:11:57.404Z,96785.03
2018-03-15T10:14:23.636Z,96786.67
2018-03-15T10:16:50.263Z,96784.51
2018-03-15T10:19:16.504Z,96769.69
2018-03-15T10:21:42.768Z,96769.25
2018-03-15T10:24:09.011Z,96774.69
2018-03-15T10:26:35.315Z,96759.87
2018-03-15T10:29:01.580Z,96758.82
2018-03-15T10:31:27.825Z,96759.78
2018-03-15T10:33:54.092Z,96755.91
2018-03-15T10:36:20.344Z,96767.45
2018-03-15T10:38:46.595Z,96752.06
2018-03-15T10:41:12.916Z,96751.53
2018-03-15T10:43:39.148Z,96746.03
2018-03-15T10:46:05.410Z,96739.65
2018-03-15T10:48:31.664Z,96729.01
2018-03-15T10:50:57.932Z,96724.89
2018-03-15T10:53:24.228Z,96729.68
2018-03-15T10:55:50.493Z,96735.16
2018-03-15T10:58:16.728Z,96740.66
2018-03-15T11:00:49.016Z,96721.91
2018-03-15T11:03:17.091Z,96735.28
2018-03-15T11:05:46.453Z,96718.09
2018-03-15T11:08:18.807Z,96718.48
2018-03-15T11:10:45.099Z,96721.45
2018-03-15T11:13:11.335Z,96711.98
2018-03-15T11:15:37.613Z,96712.18
2018-03-15T11:18:03.892Z,96711.52
2018-03-15T11:20:30.128Z,96699.59
2018-03-15T11:22:56.428Z,96697.90
2018-03-15T11:25:22.703Z,96702.29
2018-03-15T11:27:49.009Z,96708.34
2018-03-15T11:30:15.248Z,96703.88
2018-03-15T11:32:41.510Z,96702.13
2018-03-15T11:35:07.755Z,96696.39
2018-03-15T11:37:34.017Z,96688.25
2018-03-15T11:40:00.256Z,96681.88
2018-03-15T11:42:26.568Z,96685.87
2018-03-15T11:44:52.816Z,96676.36
2018-03-15T11:47:19.067Z,96656.38
2018-03-15T11:49:45.323Z,96643.84
2018-03-15T11:52:11.559Z,96643.91
2018-03-15T11:54:37.853Z,96639.73
2018-03-15T11:57:04.168Z,96644.98
2018-03-15T11:59:30.415Z,96638.98
2018-03-15T12:01:56.655Z,96639.15
2018-03-15T12:04:22.920Z,96634.77
2018-03-15T12:06:49.165Z,96630.01
2018-03-15T12:09:15.420Z,96629.69
2018-03-15T12:11:41.688Z,96612.94
2018-03-15T12:14:07.940Z,96627.23
2018-03-15T12:16:34.212Z,96615.04
2018-03-15T12:19:00.459Z,96618.20
2018-03-15T12:21:27.338Z,96612.58
2018-03-15T12:23:53.620Z,96608.56
2018-03-15T12:26:19.864Z,96610.19
2018-03-15T12:28:46.121Z,96612.54
2018-03-15T12:31:12.344Z,96593.57
2018-03-15T12:33:38.581Z,96600.92
2018-03-15T12:36:04.819Z,96599.19
2018-03-15T12:38:31.051Z,96583.88
2018-03-15T12:40:57.282Z,96582.44
2018-03-15T12:43:23.511Z,96582.91
2018-03-15T12:45:49.771Z,96579.89
2018-03-15T12:48:15.985Z,96585.87
2018-03-15T12:50:42.229Z,96585.03
2018-03-15T12:53:08.487Z,96576.60
2018-03-15T12:55:34.736Z,96563.02
2018-03-15T12:58:00.949Z,96573.91
2018-03-15T13:00:27.202Z,96573.81
2018-03-15T13:02:53.464Z,96577.80
2018-03-15T13:05:19.704Z,96572.27
2018-03-15T13:07:45.940Z,96575.70
2018-03-15T13:10:12.200Z,96559.97
2018-03-15T13:12:38.427Z,96563.05
2018-03-15T13:15:04.668Z,96559.49
2018-03-15T13:17:30.906Z,96561.08
2018-03-15T13:19:57.156Z,96560.61
2018-03-15T13:22:23.393Z,96566.11
2018-03-15T13:24:49.616Z,96556.29
2018-03-15T13:27:15.848Z,96554.01
2018-03-15T13:29:42.071Z,96553.66
2018-03-15T13:32:08.304Z,96545.97
2018-03-15T13:34:34.553Z,96559.19
2018-03-15T13:37:00.796Z,96552.05
2018-03-15T13:39:27.013Z,96552.59
2018-03-15T13:41:53.248Z,96560.77
2018-03-15T13:44:19.496Z,96553.52
2018-03-15T13:46:45.724Z,96542.46
2018-03-15T13:49:11.977Z,96543.20
2018-03-15T13:51:38.200Z,96533.50
2018-03-15T13:54:04.504Z,96546.20
2018-03-15T13:56:30.732Z,96528.45
2018-03-15T13:58:56.990Z,96531.39
2018-03-15T14:01:23.269Z,96536.95
2018-03-15T14:03:49.508Z,96529.96
2018-03-15T14:06:15.740Z,96546.77
2018-03-15T14:08:41.999Z,96536.83
2018-03-15T14:11:08.220Z,96542.73
2018-03-15T14:13:34.456Z,96539.97
2018-03-15T14:16:00.688Z,96542.50
2018-03-15T14:18:26.908Z,96541.29
2018-03-15T14:20:53.152Z,96541.16
2018-03-15T14:23:19.407Z,96529.97
2018-03-15T14:25:45.628Z,96526.11
2018-03-15T14:28:11.839Z,96524.83
2018-03-15T14:30:38.076Z,96522.66
2018-03-15T14:33:04.320Z,96517.95
2018-03-15T14:35:30.569Z,96516.91
2018-03-15T14:37:56.791Z,96514.80
2018-03-15T14:40:23.021Z,96499.72
2018-03-15T14:42:49.267Z,96492.78
2018-03-15T14:45:15.520Z,96490.67
2018-03-15T14:47:41.779Z,96482.50
2018-03-15T14:50:07.996Z,96479.84
2018-03-15T14:52:34.240Z,96487.05
2018-03-15T14:55:00.480Z,96491.25
2018-03-15T14:57:26.716Z,96484.06
2018-03-15T14:59:52.944Z,96486.02
2018-03-15T15:02:19.208Z,96478.41
2018-03-15T15:04:45.424Z,96480.78
2018-03-15T15:07:11.647Z,96482.31
2018-03-15T15:09:37.892Z,96473.14
2018-03-15T15:12:04.108Z,96481.55
2018-03-15T15:14:30.356Z,96474.73
2018-03-15T15:16:56.618Z,96471.94
2018-03-15T15:19:22.896Z,96481.53
2018-03-15T15:21:49.123Z,96485.72
2018-03-15T15:24:15.369Z,96487.86
2018-03-15T15:26:41.597Z,96493.41
2018-03-15T15:29:07.897Z,96491.94
2018-03-15T15:31:34.185Z,96490.70
2018-03-15T15:34:00.438Z,96495.86
2018-03-15T15:36:26.668Z,96492.95
2018-03-15T15:38:52.893Z,96491.91
2018-03-15T15:41:19.174Z,96480.39
2018-03-15T15:43:45.410Z,96488.97
2018-03-15T15:46:11.661Z,96478.23
2018-03-15T15:48:37.880Z,96469.47
2018-03-15T15:51:04.128Z,96468.66
2018-03-15T15:53:30.432Z,96461.20
2018-03-15T15:55:56.652Z,96464.94
2018-03-15T15:58:22.885Z,96463.31
2018-03-15T16:00:49.101Z,96458.71
2018-03-15T16:03:15.344Z,96464.79
2018-03-15T16:05:41.604Z,96461.00
2018-03-15T16:08:07.864Z,96464.89
2018-03-15T16:10:34.129Z,96458.74
2018-03-15T16:13:00.379Z,96463.80
2018-03-15T16:15:26.601Z,96459.52
2018-03-15T16:17:52.875Z,96463.53
2018-03-15T16:20:19.116Z,96463.13
2018-03-15T16:22:45.360Z,96453.86
2018-03-15T16:25:11.604Z,96460.94
2018-03-15T16:27:37.837Z,96460.52
2018-03-15T16:30:04.137Z,96451.98
2018-03-15T16:32:30.360Z,96453.27
2018-03-15T16:34:56.620Z,96454.92
2018-03-15T16:37:22.855Z,96455.31
2018-03-15T16:39:49.108Z,96455.06
2018-03-15T16:42:15.368Z,96461.03
2018-03-15T16:44:41.646Z,96464.19
2018-03-15T16:47:07.902Z,96464.56
2018-03-15T16:49:34.125Z,96470.99
2018-03-15T16:52:00.370Z,96475.02
2018-03-15T16:54:26.621Z,96473.77
2018-03-15T16:56:52.876Z,96477.64
2018-03-15T16:59:19.108Z,96476.12
2018-03-15T17:01:45.378Z,96472.11
2018-03-15T17:04:11.609Z,96468.84
2018-03-15T17:06:37.850Z,96469.97
2018-03-15T17:09:04.132Z,96462.78
2018-03-15T17:11:30.434Z,96468.80
2018-03-15T17:13:56.705Z,96468.69
2018-03-15T17:16:22.928Z,96464.52
2018-03-15T17:18:49.205Z,96469.12
2018-03-15T17:21:15.471Z,96466.34
2018-03-15T17:23:44.236Z,96460.52
2018-03-15T17:26:10.508Z,96455.48
2018-03-15T17:28:36.828Z,96455.60
2018-03-15T17:31:03.246Z,96444.64
2018-03-15T17:33:29.484Z,96442.62
2018-03-15T17:35:56.001Z,96451.38
2018-03-15T17:38:22.400Z,96453.89
2018-03-15T17:40:48.745Z,96453.33
2018-03-15T17:43:14.967Z,96455.72
2018-03-15T17:45:41.312Z,96460.97
2018-03-15T17:48:07.630Z,96452.30
2018-03-15T17:50:33.927Z,96459.56
2018-03-15T17:53:00.240Z,96455.80
2018-03-15T17:55:26.528Z,96462.78
2018-03-15T17:57:52.764Z,96465.76
2018-03-15T18:00:19.008Z,96467.25
2018-03-15T18:02:45.293Z,96460.17
2018-03-15T18:05:11.542Z,96467.70
2018-03-15T18:07:37.797Z,96464.31
2018-03-15T18:10:04.393Z,96466.94
2018-03-15T18:12:30.819Z,96470.91
2018-03-15T18:14:57.097Z,96470.63
2018-03-15T18:17:23.639Z,96464.22
2018-03-15T18:19:49.952Z,96463.97
2018-03-15T18:22:16.302Z,96457.94
2018-03-15T18:24:42.730Z,96460.55
2018-03-15T18:27:08.969Z,96449.90
2018-03-15T18:29:35.361Z,96445.59
2018-03-15T18:32:01.636Z,96441.41
2018-03-15T18:34:28.115Z,96434.52
2018-03-15T18:36:54.496Z,96436.52
2018-03-15T18:39:21.018Z,96430.75
2018-03-15T18:41:47.311Z,96438.13
2018-03-15T18:44:13.571Z,96432.00
2018-03-15T18:46:39.874Z,96430.23
2018-03-15T18:49:06.161Z,96434.41
2018-03-15T18:51:32.392Z,96430.02
2018-03-15T18:53:58.682Z,96430.06
2018-03-15T18:56:24.936Z,96428.81
2018-03-15T18:58:51.204Z,96424.75
2018-03-15T19:01:17.532Z,96424.61
2018-03-15T19:03:43.785Z,96421.13
2018-03-15T19:06:10.105Z,96418.37
2018-03-15T19:08:36.401Z,96418.64
2018-03-15T19:11:02.648Z,96425.67
2018-03-15T19:13:28.920Z,96416.47
2018-03-15T19:15:55.202Z,96422.99
2018-03-15T19:18:21.453Z,96417.37
2018-03-15T19:20:47.718Z,96420.84
2018-03-15T19:23:14.640Z,96425.33
2018-03-15T19:25:40.921Z,96430.64
2018-03-15T19:28:07.175Z,96425.98
2018-03-15T19:30:33.460Z,96427.78
2018-03-15T19:32:59.692Z,96427.37
2018-03-15T19:35:25.957Z,96428.02
2018-03-15T19:37:52.274Z,96437.12
2018-03-15T19:40:18.501Z,96436.36
2018-03-15T19:42:44.759Z,96439.63
2018-03-15T19:45:11.016Z,96431.59
2018-03-15T19:47:37.303Z,96429.46
2018-03-15T19:50:03.606Z,96428.42
2018-03-15T19:52:29.882Z,96430.42
2018-03-15T19:54:56.117Z,96421.77
2018-03-15T19:57:22.365Z,96425.42
2018-03-15T19:59:48.630Z,96415.77
2018-03-15T20:02:14.902Z,96410.50
2018-03-15T20:04:41.179Z,96411.36
2018-03-15T20:07:07.476Z,96419.48
2018-03-15T20:09:33.744Z,96423.24
2018-03-15T20:11:59.990Z,96420.77
2018-03-15T20:14:26.256Z,96416.64
2018-03-15T20:16:52.497Z,96415.77
2018-03-15T20:19:18.819Z,96417.91
2018-03-15T20:21:45.129Z,96408.98
2018-03-15T20:24:17.423Z,96421.48
2018-03-15T20:26:43.661Z,96417.41
2018-03-15T20:29:09.877Z,96408.08
2018-03-15T20:31:36.164Z,96416.88
2018-03-15T20:34:08.437Z,96407.61
2018-03-15T20:36:34.692Z,96409.88
2018-03-15T20:39:01.105Z,96414.02
2018-03-15T20:41:27.409Z,96412.74
2018-03-15T20:43:53.752Z,96407.22
2018-03-15T20:46:25.932Z,96410.98
2018-03-15T20:48:58.426Z,96408.37
2018-03-15T20:51:24.845Z,96399.19
2018-03-15T20:53:51.096Z,96392.81
2018-03-15T20:56:17.347Z,96392.91
2018-03-15T20:58:43.620Z,96401.80
2018-03-15T21:01:10.048Z,96382.89
2018-03-15T21:03:36.448Z,96377.37
2018-03-15T21:06:02.690Z,96379.23
2018-03-15T21:08:28.938Z,96381.99
2018-03-15T21:10:55.277Z,96378.51
2018-03-15T21:13:21.522Z,96377.75
2018-03-15T21:15:48.048Z,96370.09
2018-03-15T21:18:14.373Z,96371.61
2018-03-15T21:20:40.911Z,96363.69
2018-03-15T21:23:07.310Z,96361.95
2018-03-15T21:25:33.536Z,96353.69
2018-03-15T21:27:59.809Z,96353.83
2018-03-15T21:30:26.072Z,96347.89
2018-03-15T21:32:54.687Z,96346.62
2018-03-15T21:35:20.920Z,96347.66
2018-03-15T21:37:47.152Z,96345.56
2018-03-15T21:40:13.392Z,96344.59
2018-03-15T21:42:39.645Z,96334.55
2018-03-15T21:45:06.029Z,96333.17
2018-03-15T21:47:32.291Z,96340.42
2018-03-15T21:49:58.526Z,96332.63
2018-03-15T21:52:24.980Z,96329.52
2018-03-15T21:54:51.200Z,96319.56
2018-03-15T21:57:17.412Z,96322.19
2018-03-15T21:59:43.664Z,96320.19
2018-03-15T22:02:09.887Z,96319.29
2018-03-15T22:04:36.377Z,96297.51
2018-03-15T22:07:02.636Z,96300.91
2018-03-15T22:09:28.870Z,96295.51
2018-03-15T22:11:55.176Z,96295.78
2018-03-15T22:14:21.411Z,96296.13
2018-03-15T22:16:47.699Z,96291.02
2018-03-15T22:19:13.980Z,96288.99
2018-03-15T22:21:40.221Z,96294.75
2018-03-15T22:24:06.644Z,96314.88
2018-03-15T22:26:32.901Z,96322.94
2018-03-15T22:28:59.164Z,96335.21
2018-03-15T22:31:25.404Z,96334.84
2018-03-15T22:33:51.637Z,96342.37
2018-03-15T22:36:18.007Z,96338.48
2018-03-15T22:38:44.248Z,96340.97
2018-03-15T22:41:10.468Z,96346.89
2018-03-15T22:43:36.891Z,96343.63
2018-03-15T22:46:03.164Z,96346.86
2018-03-15T22:48:29.402Z,96340.97
2018-03-15T22:50:55.668Z,96347.03
2018-03-15T22:53:21.905Z,96348.63
2018-03-15T22:55:48.297Z,96341.89
2018-03-15T22:58:14.552Z,96341.03
2018-03-15T23:00:40.783Z,96337.58
2018-03-15T23:03:07.140Z,96339.11
2018-03-15T23:05:33.376Z,96333.75
2018-03-15T23:07:59.667Z,96336.92
2018-03-15T23:10:25.923Z,96333.64
2018-03-15T23:12:52.156Z,96344.81
2018-03-15T23:15:18.547Z,96336.30
2018-03-15T23:17:44.769Z,96332.92
2018-03-15T23:20:11.050Z,96322.27
2018-03-15T23:22:37.330Z,96320.48
2018-03-15T23:25:03.612Z,96313.36
2018-03-15T23:27:30.245Z,96327.47
2018-03-15T23:29:56.492Z,96325.58
2018-03-15T23:32:22.732Z,96321.06
2018-03-15T23:34:49.082Z,96314.55
2018-03-15T23:37:15.334Z,96318.93
2018-03-15T23:39:41.583Z,96317.27
2018-03-15T23:42:07.837Z,96318.41
2018-03-15T23:44:34.062Z,96310.08
2018-03-15T23:47:00.304Z,96293.16
2018-03-15T23:49:26.529Z,96283.77
2018-03-15T23:51:52.754Z,96275.66
2018-03-15T23:54:19.132Z,96281.18
2018-03-15T23:56:45.365Z,96273.91
2018-03-15T23:59:11.674Z,96275.84
